KCPS/CPS METAR and TAF weather

Enter ICAO airport designator
Station Type Date Time Source
KCPS METAR 2021/10/22 18:53 UTC NOAA

KCPS 221853Z 29004KT 10SM BKN029 OVC035 12/07 A3008 RMK AO2 SLP187 T01220067 $


Station Type Date Time Source
KCPS Decoded METAR 2021/10/22 18:53 UTC NOAA

ST LOUIS DOWNTOWN AIRPORT, IL, United States (KCPS) 38-34N 090-09W 126M
Oct 22, 2021 - 02:53 PM EDT / 2021.10.22 1853 UTC
Wind: from the WNW (290 degrees) at 5 MPH (4 KT):0
Visibility: 10 mile(s):0
Sky conditions: overcast
Temperature: 54.0 F (12.2 C)
Dew Point: 44.1 F (6.7 C)
Relative Humidity: 69%
Pressure (altimeter): 30.08 in. Hg (1018 hPa)
ob: KCPS 221853Z 29004KT 10SM BKN029 OVC035 12/07 A3008 RMK AO2 SLP187 T01220067
cycle: 19

Station Type Date Time Source
KCPS TAF 2021/10/22 18:22 UTC NOAA

TAF KCPS 221720Z 2218/2318 29005KT P6SM BKN025
FM222200 29005KT P6SM BKN150
FM231600 11005KT P6SM VCSH OVC015

Example: see airport list